Time;durP1;ratioP1;P1;durP2;ratioP2;P2;SDS_P1;SDS_P2;PMS_P1;PMS_P2;Temp;Humidity;BMP_temperature;BMP_pressure;BME280_temperature;BME280_humidity;BME280_pressure;Samples;Min_cycle;Max_cycle;Signal;HPM_P1;HPM_P2
2021/12/02 00:01:12;;;;;;;7.68;3.40;;;5.70;99.90;;;;;;5084400;28;20200;-71
2021/12/02 00:03:39;;;;;;;4.57;2.17;;;5.70;99.90;;;;;;5085335;28;20220;-71
2021/12/02 00:06:10;;;;;;;10.25;3.50;;;5.70;99.90;;;;;;5072288;28;20281;-71
2021/12/02 00:08:38;;;;;;;3.08;2.88;;;5.70;99.90;;;;;;5086008;28;20646;-71
2021/12/02 00:11:06;;;;;;;5.72;2.80;;;5.70;99.90;;;;;;5083639;28;20254;-71
2021/12/02 00:13:41;;;;;;;3.17;2.90;;;5.70;99.90;;;;;;5086237;28;20228;-70
2021/12/02 00:16:18;;;;;;;3.35;2.45;;;5.70;99.90;;;;;;5092703;28;20207;-70
2021/12/02 00:21:30;;;;;;;2.30;2.10;;;5.60;99.90;;;;;;5077999;28;20291;-71
2021/12/02 00:24:04;;;;;;;5.78;2.78;;;5.70;99.90;;;;;;5070589;28;20237;-70
2021/12/02 00:26:32;;;;;;;2.30;2.10;;;5.60;99.90;;;;;;5066041;28;20215;-70
2021/12/02 00:29:01;;;;;;;7.55;3.28;;;5.70;99.90;;;;;;5090668;28;20242;-71
2021/12/02 00:31:30;;;;;;;3.05;2.10;;;5.70;99.90;;;;;;5100038;28;20335;-70
2021/12/02 00:33:59;;;;;;;5.35;4.00;;;5.70;99.90;;;;;;5089704;28;20695;-71
2021/12/02 00:36:28;;;;;;;8.95;3.28;;;5.70;99.90;;;;;;5090632;28;20212;-71
2021/12/02 00:38:56;;;;;;;6.82;4.05;;;5.70;99.90;;;;;;5070553;28;20208;-71
2021/12/02 00:41:27;;;;;;;4.20;2.53;;;5.70;99.90;;;;;;5085157;28;20262;-72
2021/12/02 00:43:56;;;;;;;3.67;3.05;;;5.70;99.90;;;;;;5072621;28;20243;-70
2021/12/02 00:46:24;;;;;;;5.25;4.00;;;5.70;99.90;;;;;;5072278;28;20267;-71
2021/12/02 00:48:51;;;;;;;2.50;2.28;;;5.70;99.90;;;;;;5070900;28;20213;-71
2021/12/02 00:51:19;;;;;;;3.05;2.85;;;5.70;99.90;;;;;;5071285;28;20292;-70
2021/12/02 00:53:52;;;;;;;4.68;3.17;;;5.70;99.90;;;;;;5083566;28;20216;-71
2021/12/02 00:56:22;;;;;;;4.30;3.80;;;5.70;99.90;;;;;;5085845;28;20500;-71
2021/12/02 00:58:51;;;;;;;3.58;3.28;;;5.70;99.90;;;;;;5092136;28;20639;-71
2021/12/02 01:01:20;;;;;;;5.15;3.20;;;5.70;99.90;;;;;;5074026;28;20212;-71
2021/12/02 01:03:49;;;;;;;3.03;2.72;;;5.70;99.90;;;;;;5076226;28;20244;-70
2021/12/02 01:06:16;;;;;;;3.45;3.15;;;5.70;99.90;;;;;;5082573;28;20303;-71
2021/12/02 01:08:43;;;;;;;3.33;3.00;;;5.70;99.90;;;;;;5097426;28;20257;-71
2021/12/02 01:11:12;;;;;;;6.78;4.13;;;5.70;99.90;;;;;;5080945;28;20208;-71
2021/12/02 01:13:39;;;;;;;4.72;3.40;;;5.60;99.90;;;;;;5101952;28;20538;-71
2021/12/02 01:16:07;;;;;;;3.05;2.53;;;5.70;99.90;;;;;;5069876;28;20465;-70
2021/12/02 01:18:34;;;;;;;5.05;3.03;;;5.70;99.90;;;;;;5068646;28;20293;-71
2021/12/02 01:21:01;;;;;;;3.30;3.00;;;5.70;99.90;;;;;;5076077;28;20399;-70
2021/12/02 01:23:31;;;;;;;4.68;3.58;;;5.70;99.90;;;;;;5075411;28;20239;-70
2021/12/02 01:26:01;;;;;;;5.47;3.50;;;5.70;99.90;;;;;;5089205;28;20272;-70
2021/12/02 01:28:30;;;;;;;3.70;3.40;;;5.70;99.90;;;;;;5091064;28;20203;-72
2021/12/02 01:30:57;;;;;;;2.92;2.65;;;5.70;99.90;;;;;;5099661;28;20226;-71
2021/12/02 01:33:27;;;;;;;3.15;2.75;;;5.70;99.90;;;;;;5072143;28;20233;-70
2021/12/02 01:35:56;;;;;;;4.63;3.72;;;5.70;99.90;;;;;;5069181;28;20246;-71
2021/12/02 01:38:23;;;;;;;3.55;2.65;;;5.70;99.90;;;;;;5069459;28;20213;-71
2021/12/02 01:40:51;;;;;;;4.15;3.10;;;5.70;99.90;;;;;;5086735;28;20205;-70
2021/12/02 01:43:21;;;;;;;4.53;3.15;;;5.70;99.90;;;;;;5090329;28;20230;-70
2021/12/02 01:45:47;;;;;;;5.10;3.60;;;5.60;99.90;;;;;;5083905;28;20225;-71
2021/12/02 01:48:25;;;;;;;8.40;4.00;;;5.70;99.90;;;;;;5069030;28;20204;-70
2021/12/02 01:51:01;;;;;;;5.18;2.67;;;5.70;99.90;;;;;;5081230;28;20296;-69
2021/12/02 01:53:32;;;;;;;3.88;2.05;;;5.60;99.90;;;;;;5088410;28;20701;-70
2021/12/02 01:56:09;;;;;;;5.30;3.10;;;5.60;99.90;;;;;;5083370;28;20448;-70
2021/12/02 01:58:42;;;;;;;3.90;2.55;;;5.60;99.90;;;;;;5083297;28;20234;-70
2021/12/02 02:01:15;;;;;;;3.83;2.42;;;5.60;99.90;;;;;;5077556;28;20214;-70
2021/12/02 02:03:44;;;;;;;3.80;2.10;;;5.70;99.90;;;;;;5089759;28;20239;-71
2021/12/02 02:06:13;;;;;;;3.58;2.95;;;5.60;99.90;;;;;;5084128;28;20208;-70
2021/12/02 02:08:45;;;;;;;3.50;3.20;;;5.60;99.90;;;;;;5073445;28;20212;-72
2021/12/02 02:11:12;;;;;;;6.05;3.35;;;5.70;99.90;;;;;;5085251;28;20209;-71
2021/12/02 02:13:41;;;;;;;6.18;3.42;;;5.70;99.90;;;;;;5091568;28;20235;-70
2021/12/02 02:16:08;;;;;;;2.92;2.40;;;5.70;99.90;;;;;;5092885;28;20207;-70
2021/12/02 02:18:34;;;;;;;3.47;2.70;;;5.60;99.90;;;;;;5078907;27;20236;-70
2021/12/02 02:21:03;;;;;;;2.63;2.40;;;5.60;99.90;;;;;;5067929;28;20214;-70
2021/12/02 02:23:33;;;;;;;2.35;2.15;;;5.50;99.90;;;;;;5071102;28;20235;-70
2021/12/02 02:26:00;;;;;;;3.53;3.22;;;5.50;99.90;;;;;;5100609;28;20254;-70
2021/12/02 02:28:29;;;;;;;4.55;2.67;;;5.50;99.90;;;;;;5085835;28;20330;-70
2021/12/02 02:30:56;;;;;;;2.75;2.55;;;5.50;99.90;;;;;;5089204;28;20197;-70
2021/12/02 02:33:23;;;;;;;5.80;2.30;;;5.40;99.90;;;;;;5101153;28;20542;-72
2021/12/02 02:35:50;;;;;;;4.93;3.35;;;5.50;99.90;;;;;;5078064;28;20256;-71
2021/12/02 02:38:20;;;;;;;2.50;2.30;;;5.40;99.90;;;;;;5083428;28;20227;-70
2021/12/02 02:40:48;;;;;;;3.20;2.90;;;5.40;99.90;;;;;;5097419;28;20214;-70
2021/12/02 02:43:21;;;;;;;6.15;3.63;;;5.40;99.90;;;;;;5089918;28;20641;-71
2021/12/02 02:45:48;;;;;;;2.72;2.53;;;5.40;99.90;;;;;;5092474;28;20239;-71
2021/12/02 02:48:15;;;;;;;3.88;2.55;;;5.40;99.90;;;;;;5086070;28;20341;-70
2021/12/02 02:50:41;;;;;;;8.05;3.83;;;5.40;99.90;;;;;;5098508;28;20212;-70
2021/12/02 02:53:15;;;;;;;3.20;2.80;;;5.40;99.90;;;;;;5088182;28;20239;-70
2021/12/02 02:55:50;;;;;;;6.63;3.47;;;5.30;99.90;;;;;;5074284;28;20326;-70
2021/12/02 02:58:25;;;;;;;3.25;2.95;;;5.30;99.90;;;;;;5072711;28;20302;-72
2021/12/02 03:01:00;;;;;;;2.75;2.53;;;5.30;99.90;;;;;;5084534;28;20263;-72
2021/12/02 03:03:34;;;;;;;3.28;2.53;;;5.20;99.90;;;;;;5085859;28;20778;-71
2021/12/02 03:06:20;;;;;;;2.70;2.50;;;5.20;99.90;;;;;;5080428;28;20224;-71
2021/12/02 03:08:51;;;;;;;3.75;3.45;;;5.10;99.90;;;;;;5087226;28;20261;-71
2021/12/02 03:11:22;;;;;;;5.97;2.60;;;5.10;99.90;;;;;;5085687;28;20546;-71
2021/12/02 03:13:51;;;;;;;3.55;2.30;;;5.10;99.90;;;;;;5097520;28;20227;-69
2021/12/02 03:19:03;;;;;;;2.50;2.28;;;5.00;99.90;;;;;;5067729;28;20203;-70
2021/12/02 03:21:30;;;;;;;1.60;1.50;;;5.00;99.90;;;;;;5073579;28;20278;-70
2021/12/02 03:23:58;;;;;;;2.00;1.90;;;5.00;99.90;;;;;;5071508;28;20323;-69
2021/12/02 03:26:27;;;;;;;2.42;2.13;;;5.00;99.90;;;;;;5090833;28;20197;-70
2021/12/02 03:28:56;;;;;;;3.22;1.88;;;5.00;99.90;;;;;;5075677;28;20671;-71
2021/12/02 03:31:23;;;;;;;2.40;2.22;;;4.90;99.90;;;;;;5068381;28;20291;-70
2021/12/02 03:33:50;;;;;;;2.80;2.60;;;5.00;99.90;;;;;;5066378;28;20228;-70
2021/12/02 03:36:18;;;;;;;4.43;2.70;;;5.00;99.90;;;;;;5066031;28;20511;-70
2021/12/02 03:38:46;;;;;;;4.18;2.97;;;4.90;99.90;;;;;;5071702;28;20273;-71
2021/12/02 03:41:13;;;;;;;2.63;2.20;;;4.90;99.90;;;;;;5075522;28;20201;-71
2021/12/02 03:43:43;;;;;;;3.95;3.40;;;4.90;99.90;;;;;;5091415;28;20228;-69
2021/12/02 03:46:12;;;;;;;3.90;2.42;;;4.80;99.90;;;;;;5079069;28;20273;-69
2021/12/02 03:48:38;;;;;;;2.03;1.75;;;4.80;99.90;;;;;;5094363;28;20625;-70
2021/12/02 03:51:06;;;;;;;1.80;1.70;;;4.80;99.90;;;;;;5099082;28;20207;-69
2021/12/02 03:53:33;;;;;;;2.40;2.30;;;4.80;99.90;;;;;;5086030;28;20228;-69
2021/12/02 03:56:01;;;;;;;1.77;1.40;;;4.80;99.90;;;;;;5080336;28;20258;-70
2021/12/02 03:58:27;;;;;;;1.83;1.63;;;4.80;99.90;;;;;;5085433;28;20214;-69
2021/12/02 04:00:55;;;;;;;2.50;2.30;;;4.80;99.90;;;;;;5084528;28;20215;-69
2021/12/02 04:03:22;;;;;;;2.75;2.03;;;4.70;99.90;;;;;;5084499;28;20235;-70
2021/12/02 04:05:49;;;;;;;2.88;2.53;;;4.80;99.90;;;;;;5080650;28;20270;-70
2021/12/02 04:08:16;;;;;;;4.78;2.78;;;4.80;99.90;;;;;;5074692;28;20208;-70
2021/12/02 04:10:43;;;;;;;2.20;1.48;;;4.70;99.90;;;;;;5066582;28;20581;-70
2021/12/02 04:13:16;;;;;;;3.22;3.03;;;4.70;99.90;;;;;;5090813;28;20238;-71
2021/12/02 04:15:49;;;;;;;3.17;2.95;;;4.70;99.90;;;;;;5099491;28;20606;-70
2021/12/02 04:18:17;;;;;;;1.95;1.80;;;4.80;99.90;;;;;;5083777;28;20204;-71
2021/12/02 04:20:44;;;;;;;3.65;2.28;;;4.80;99.90;;;;;;5084868;28;20204;-71
2021/12/02 04:23:10;;;;;;;2.40;2.25;;;4.70;99.90;;;;;;5068954;28;20292;-70
2021/12/02 04:25:37;;;;;;;4.93;1.83;;;4.70;99.90;;;;;;5065646;28;20736;-70
2021/12/02 04:28:04;;;;;;;2.72;2.53;;;4.70;99.90;;;;;;5091109;28;20211;-70
2021/12/02 04:30:31;;;;;;;2.40;1.88;;;4.60;99.90;;;;;;5099130;28;20353;-70
2021/12/02 04:32:58;;;;;;;2.17;1.98;;;4.70;99.90;;;;;;5078674;28;20215;-69
2021/12/02 04:35:26;;;;;;;2.65;2.45;;;4.60;99.90;;;;;;5079013;28;20239;-70
2021/12/02 04:37:52;;;;;;;3.97;1.20;;;4.60;99.90;;;;;;5084952;28;20265;-70
2021/12/02 04:40:21;;;;;;;1.40;1.30;;;4.60;99.90;;;;;;5071522;28;20727;-70
2021/12/02 04:42:48;;;;;;;6.43;2.47;;;4.60;99.90;;;;;;5085180;28;20224;-70
2021/12/02 04:45:15;;;;;;;1.20;1.20;;;4.50;99.90;;;;;;5078875;28;20498;-70
2021/12/02 04:47:42;;;;;;;0.90;0.80;;;4.60;99.90;;;;;;5072520;28;20261;-70
2021/12/02 04:50:10;;;;;;;2.97;1.25;;;4.50;99.90;;;;;;5097254;28;20212;-69
2021/12/02 04:52:38;;;;;;;13.05;2.17;;;4.50;99.90;;;;;;5083327;28;20693;-70
2021/12/02 04:55:07;;;;;;;5.95;1.90;;;4.40;99.90;;;;;;5076478;28;20197;-69
2021/12/02 04:57:33;;;;;;;2.97;2.33;;;4.40;99.90;;;;;;5078435;28;20200;-69
2021/12/02 05:00:00;;;;;;;2.08;1.80;;;4.40;99.90;;;;;;5078222;28;20208;-70
2021/12/02 05:02:27;;;;;;;2.50;1.65;;;4.40;99.90;;;;;;5085869;28;20260;-69
2021/12/02 05:04:53;;;;;;;5.43;2.63;;;4.40;99.90;;;;;;5089141;28;20329;-69
2021/12/02 05:07:20;;;;;;;2.08;1.88;;;4.40;99.90;;;;;;5086309;28;20212;-69
2021/12/02 05:12:16;;;;;;;1.50;1.40;;;4.40;99.90;;;;;;5062587;28;20220;-71
2021/12/02 05:14:43;;;;;;;2.15;1.95;;;4.40;99.90;;;;;;5068006;28;20204;-70
2021/12/02 05:17:10;;;;;;;4.97;2.00;;;4.50;99.90;;;;;;5068107;28;20250;-70
2021/12/02 05:19:36;;;;;;;2.05;1.85;;;4.40;99.90;;;;;;5068180;28;20216;-69
2021/12/02 05:22:03;;;;;;;7.88;3.05;;;4.50;99.90;;;;;;5071898;28;20216;-69
2021/12/02 05:24:30;;;;;;;3.00;1.98;;;4.50;99.90;;;;;;5071926;28;20205;-70
2021/12/02 05:26:57;;;;;;;2.58;1.52;;;4.50;99.90;;;;;;5071326;28;20232;-69
2021/12/02 05:29:25;;;;;;;3.42;1.85;;;4.50;99.90;;;;;;5071423;28;20215;-71
2021/12/02 05:31:51;;;;;;;1.65;1.27;;;4.50;99.90;;;;;;5071364;28;20853;-70
2021/12/02 05:34:18;;;;;;;2.30;1.85;;;4.50;99.90;;;;;;5072078;28;20205;-70
2021/12/02 05:36:45;;;;;;;3.05;1.50;;;4.50;99.90;;;;;;5072006;28;20196;-69
2021/12/02 05:39:11;;;;;;;2.33;1.20;;;4.50;99.90;;;;;;5070853;28;20201;-70
2021/12/02 05:41:38;;;;;;;1.77;1.40;;;4.50;99.90;;;;;;5071852;28;20224;-70
2021/12/02 05:44:05;;;;;;;2.33;1.25;;;4.50;99.90;;;;;;5071795;28;20258;-70
2021/12/02 05:46:33;;;;;;;1.25;1.15;;;4.50;99.90;;;;;;5069312;28;20228;-70
2021/12/02 05:49:00;;;;;;;1.55;1.15;;;4.50;99.90;;;;;;5074070;28;20204;-70
2021/12/02 05:51:26;;;;;;;2.13;1.67;;;4.50;99.90;;;;;;5070825;28;20217;-70
2021/12/02 05:53:53;;;;;;;2.55;1.25;;;4.50;99.90;;;;;;5072799;28;20204;-70
2021/12/02 05:56:20;;;;;;;1.02;0.93;;;4.50;99.90;;;;;;5072546;28;20193;-69
2021/12/02 05:58:46;;;;;;;4.72;2.00;;;4.60;99.90;;;;;;5076740;28;20200;-70
2021/12/02 06:01:13;;;;;;;4.35;2.03;;;4.60;99.90;;;;;;5071152;28;20229;-70
2021/12/02 06:03:41;;;;;;;1.35;1.25;;;4.60;99.90;;;;;;5070091;28;20204;-69
2021/12/02 06:06:08;;;;;;;1.27;1.17;;;4.60;99.90;;;;;;5070134;28;20236;-69
2021/12/02 06:08:36;;;;;;;2.85;2.65;;;4.60;99.90;;;;;;5069149;28;20208;-69
2021/12/02 06:11:03;;;;;;;4.35;3.15;;;4.60;99.90;;;;;;5060297;28;20783;-69
2021/12/02 06:13:29;;;;;;;1.67;1.58;;;4.60;99.90;;;;;;5071187;28;20208;-68
2021/12/02 06:15:56;;;;;;;1.30;1.20;;;4.60;99.90;;;;;;5070727;28;20617;-68
2021/12/02 06:18:23;;;;;;;0.80;0.80;;;4.60;99.90;;;;;;5069506;28;20204;-67
2021/12/02 06:20:53;;;;;;;6.32;2.00;;;4.60;99.90;;;;;;5078938;28;20225;-68
2021/12/02 06:23:21;;;;;;;1.70;1.60;;;4.60;99.90;;;;;;5064560;28;20201;-67
2021/12/02 06:25:48;;;;;;;2.05;1.52;;;4.50;99.90;;;;;;5070420;28;20667;-68
2021/12/02 06:28:15;;;;;;;1.42;1.33;;;4.40;99.90;;;;;;5067172;28;20212;-67
2021/12/02 06:30:43;;;;;;;1.13;1.00;;;4.30;99.90;;;;;;5068142;28;20231;-70
2021/12/02 06:33:10;;;;;;;2.22;1.15;;;4.20;99.90;;;;;;5069280;28;20213;-67
2021/12/02 06:35:37;;;;;;;1.98;1.83;;;4.20;99.90;;;;;;5050376;28;20464;-69
2021/12/02 06:38:05;;;;;;;1.77;1.20;;;4.20;99.90;;;;;;5064991;28;20285;-68
2021/12/02 06:40:34;;;;;;;5.50;1.63;;;4.10;99.90;;;;;;5063785;28;20322;-70
2021/12/02 06:43:01;;;;;;;1.20;1.10;;;4.10;99.90;;;;;;5054342;28;20240;-68
2021/12/02 06:45:27;;;;;;;3.33;1.20;;;4.10;99.90;;;;;;5050405;28;20287;-70
2021/12/02 06:47:58;;;;;;;1.92;1.02;;;4.00;99.90;;;;;;5063888;28;20213;-68
2021/12/02 06:50:26;;;;;;;1.50;1.40;;;4.00;99.90;;;;;;5061421;28;20279;-68
2021/12/02 06:52:53;;;;;;;2.63;2.42;;;4.00;99.90;;;;;;5073508;28;20291;-67
2021/12/02 06:55:22;;;;;;;2.08;1.55;;;4.00;99.90;;;;;;5062501;28;20204;-68
2021/12/02 06:57:49;;;;;;;1.67;1.58;;;4.00;99.90;;;;;;5061627;28;20205;-69
2021/12/02 07:00:19;;;;;;;4.05;1.77;;;4.00;99.90;;;;;;5062303;28;21054;-66
2021/12/02 07:02:45;;;;;;;1.40;1.30;;;4.10;99.90;;;;;;5077972;28;20259;-69
2021/12/02 07:05:14;;;;;;;1.40;1.33;;;4.10;99.90;;;;;;5078597;28;20608;-69
2021/12/02 07:07:42;;;;;;;2.25;2.05;;;4.10;99.90;;;;;;5078841;28;20205;-68
2021/12/02 07:10:11;;;;;;;2.33;2.13;;;4.10;99.90;;;;;;5078335;28;20242;-69
2021/12/02 07:12:41;;;;;;;2.55;2.35;;;4.10;99.90;;;;;;5073585;28;20205;-69
2021/12/02 07:15:14;;;;;;;2.45;2.25;;;4.10;99.90;;;;;;5058776;28;20201;-70
2021/12/02 07:17:41;;;;;;;3.50;2.20;;;4.10;99.90;;;;;;5063846;28;20304;-66
2021/12/02 07:23:00;;;;;;;3.65;3.35;;;4.20;99.90;;;;;;5101833;27;20597;-68
2021/12/02 07:25:27;;;;;;;1.95;1.85;;;4.30;99.90;;;;;;5094690;28;20677;-69
2021/12/02 07:27:54;;;;;;;2.70;2.50;;;4.20;99.90;;;;;;5101961;28;20224;-69
2021/12/02 07:30:21;;;;;;;3.88;1.85;;;4.20;99.90;;;;;;5097839;28;20656;-68
2021/12/02 07:32:52;;;;;;;2.35;1.60;;;4.20;99.90;;;;;;5089429;28;20212;-68
2021/12/02 07:35:19;;;;;;;2.05;1.92;;;4.20;99.90;;;;;;5088130;28;20204;-69
2021/12/02 07:37:48;;;;;;;2.15;1.95;;;4.20;99.90;;;;;;5094734;28;20247;-68
2021/12/02 07:40:18;;;;;;;2.10;1.88;;;4.20;99.90;;;;;;5105531;28;20299;-70
2021/12/02 07:42:46;;;;;;;3.90;1.58;;;4.10;99.90;;;;;;5093988;28;20227;-68
2021/12/02 07:45:12;;;;;;;3.17;2.28;;;4.10;99.90;;;;;;5086617;28;20210;-68
2021/12/02 07:47:40;;;;;;;1.33;1.13;;;4.10;99.90;;;;;;5099058;28;20199;-68
2021/12/02 07:50:09;;;;;;;1.63;1.52;;;4.00;99.90;;;;;;5094165;28;20311;-68
2021/12/02 07:52:41;;;;;;;3.80;1.77;;;4.00;99.90;;;;;;5095364;28;20195;-67
2021/12/02 07:55:09;;;;;;;1.65;1.52;;;4.00;99.90;;;;;;5090129;28;20223;-66
2021/12/02 07:57:40;;;;;;;1.75;1.65;;;4.00;99.90;;;;;;5098633;28;20203;-66
2021/12/02 08:00:08;;;;;;;2.00;1.77;;;3.90;99.90;;;;;;5086364;28;20278;-67
2021/12/02 08:02:36;;;;;;;2.20;2.00;;;4.00;99.90;;;;;;5088443;28;20704;-69
2021/12/02 08:05:02;;;;;;;3.58;1.70;;;3.90;99.90;;;;;;5098936;28;20200;-67
2021/12/02 08:07:29;;;;;;;7.60;2.17;;;4.00;99.90;;;;;;5092354;28;20205;-67
2021/12/02 08:09:56;;;;;;;1.33;1.10;;;3.90;99.90;;;;;;5092394;28;20224;-66
2021/12/02 08:12:23;;;;;;;2.25;1.30;;;3.90;99.90;;;;;;5099230;28;20199;-67
2021/12/02 08:14:51;;;;;;;3.97;1.48;;;3.90;99.90;;;;;;5088146;28;20207;-69
2021/12/02 08:17:18;;;;;;;1.17;0.93;;;3.90;99.90;;;;;;5084702;28;20270;-67
2021/12/02 08:19:44;;;;;;;1.67;1.45;;;3.90;99.90;;;;;;5103836;28;20210;-67
2021/12/02 08:22:11;;;;;;;8.65;1.88;;;3.90;99.90;;;;;;5090341;28;20227;-67
2021/12/02 08:24:38;;;;;;;4.10;2.00;;;3.90;99.90;;;;;;5094577;28;20203;-69
2021/12/02 08:27:05;;;;;;;3.47;1.30;;;3.90;99.90;;;;;;5094866;28;20199;-67
2021/12/02 08:29:32;;;;;;;1.38;1.27;;;3.90;99.90;;;;;;5094304;28;20203;-67
2021/12/02 08:32:02;;;;;;;2.38;2.03;;;3.90;99.90;;;;;;5089737;28;20204;-69
2021/12/02 08:34:29;;;;;;;2.33;2.13;;;3.90;99.90;;;;;;5078267;28;20205;-68
2021/12/02 08:36:56;;;;;;;2.58;1.67;;;3.90;99.90;;;;;;5084731;28;20217;-69
2021/12/02 08:39:26;;;;;;;3.40;2.15;;;3.90;99.90;;;;;;5078535;28;20201;-69
2021/12/02 08:41:55;;;;;;;1.55;1.45;;;3.90;99.90;;;;;;5076902;28;20223;-69
2021/12/02 08:44:23;;;;;;;1.75;1.65;;;3.90;99.90;;;;;;5075526;28;20289;-69
2021/12/02 08:46:51;;;;;;;3.13;2.38;;;3.90;99.90;;;;;;5075691;28;20674;-70
2021/12/02 08:49:21;;;;;;;1.15;1.05;;;3.90;99.90;;;;;;5088560;28;20226;-68
2021/12/02 08:51:48;;;;;;;1.73;1.63;;;3.90;99.90;;;;;;5070475;28;20442;-69
2021/12/02 08:54:16;;;;;;;2.83;2.30;;;3.90;99.90;;;;;;5085969;28;20217;-68
2021/12/02 08:56:42;;;;;;;3.30;1.50;;;3.90;99.90;;;;;;5079298;28;20704;-68
2021/12/02 08:59:09;;;;;;;2.00;1.27;;;3.90;99.90;;;;;;5079361;28;20203;-68
2021/12/02 09:01:37;;;;;;;1.60;1.48;;;3.90;99.90;;;;;;5072788;28;20229;-68
2021/12/02 09:04:04;;;;;;;1.90;1.80;;;4.00;99.90;;;;;;5074439;28;20255;-68
2021/12/02 09:06:33;;;;;;;2.10;1.70;;;4.00;99.90;;;;;;5074028;28;20212;-69
2021/12/02 09:09:00;;;;;;;3.53;2.00;;;4.00;99.90;;;;;;5075836;28;20211;-68
2021/12/02 09:11:29;;;;;;;1.75;1.65;;;4.10;99.90;;;;;;5071736;28;20265;-70
2021/12/02 09:13:58;;;;;;;34.47;20.38;;;4.10;99.90;;;;;;5079174;28;20215;-75
2021/12/02 09:16:25;;;;;;;2.80;2.60;;;4.10;99.90;;;;;;5075183;28;20353;-68
2021/12/02 09:18:52;;;;;;;5.25;2.70;;;4.10;99.90;;;;;;5070428;28;20299;-68
2021/12/02 09:21:18;;;;;;;2.40;2.10;;;4.10;99.90;;;;;;5068021;28;20626;-68
2021/12/02 09:23:46;;;;;;;2.22;2.13;;;4.00;99.90;;;;;;5070541;28;20208;-70
2021/12/02 09:26:13;;;;;;;3.20;2.45;;;4.00;99.90;;;;;;5070083;28;20200;-69
2021/12/02 09:28:40;;;;;;;2.83;2.45;;;3.90;99.90;;;;;;5085409;28;20205;-67
2021/12/02 09:31:07;;;;;;;2.90;2.20;;;3.90;99.90;;;;;;5077997;28;20221;-68
2021/12/02 09:33:34;;;;;;;3.30;2.92;;;3.90;99.90;;;;;;5076934;28;20226;-68
2021/12/02 09:36:01;;;;;;;4.18;2.83;;;4.00;99.90;;;;;;5076776;28;20583;-68
2021/12/02 09:38:28;;;;;;;3.65;2.65;;;4.10;99.90;;;;;;5071572;28;20207;-69
2021/12/02 09:40:56;;;;;;;2.30;2.10;;;4.20;99.90;;;;;;5070676;28;20224;-67
2021/12/02 09:43:22;;;;;;;2.30;2.10;;;4.40;99.90;;;;;;5073902;28;21863;-69
2021/12/02 09:45:49;;;;;;;2.70;2.50;;;4.50;99.90;;;;;;5069148;28;20231;-69
2021/12/02 09:48:16;;;;;;;2.15;1.95;;;4.60;99.90;;;;;;5075379;28;20623;-67
2021/12/02 09:50:52;;;;;;;2.65;2.25;;;4.80;99.90;;;;;;5095843;28;20228;-68
2021/12/02 09:53:22;;;;;;;6.03;2.47;;;5.00;99.90;;;;;;5094489;28;20199;-68
2021/12/02 09:55:54;;;;;;;6.90;2.20;;;5.00;99.90;;;;;;5092734;28;20211;-67
2021/12/02 09:58:24;;;;;;;2.15;2.05;;;5.00;99.90;;;;;;5087942;28;20212;-68
2021/12/02 10:00:57;;;;;;;1.88;1.65;;;5.00;99.90;;;;;;5080765;28;20322;-72
2021/12/02 10:03:30;;;;;;;2.28;2.08;;;5.00;99.90;;;;;;5085542;28;20220;-68
2021/12/02 10:06:06;;;;;;;3.38;1.98;;;5.00;99.90;;;;;;5087359;28;20284;-68
2021/12/02 10:08:39;;;;;;;2.47;1.83;;;5.00;99.90;;;;;;5075548;28;20746;-69
2021/12/02 10:11:08;;;;;;;2.97;1.83;;;4.90;99.90;;;;;;5077321;28;20220;-70
2021/12/02 10:13:43;;;;;;;1.58;1.27;;;4.90;99.90;;;;;;5074580;28;20355;-67
2021/12/02 10:16:19;;;;;;;1.50;1.40;;;4.90;99.90;;;;;;5070118;28;20231;-66
2021/12/02 10:18:57;;;;;;;2.08;1.60;;;4.90;99.90;;;;;;5072422;28;20782;-69
2021/12/02 10:21:28;;;;;;;2.30;2.20;;;4.90;99.90;;;;;;5068116;28;20232;-69
2021/12/02 10:23:59;;;;;;;2.65;2.30;;;4.90;99.90;;;;;;5077587;28;20655;-67
2021/12/02 10:26:26;;;;;;;1.33;1.23;;;4.90;99.90;;;;;;5070960;28;20195;-67
2021/12/02 10:28:54;;;;;;;1.05;1.05;;;4.80;99.90;;;;;;5073516;28;20208;-67
2021/12/02 10:31:24;;;;;;;1.63;1.52;;;4.80;99.90;;;;;;5082000;28;20325;-67
2021/12/02 10:33:56;;;;;;;1.63;1.52;;;4.90;99.90;;;;;;5071756;28;20197;-67
2021/12/02 10:36:29;;;;;;;1.70;1.60;;;5.10;99.90;;;;;;5071869;28;20912;-68
2021/12/02 10:38:57;;;;;;;1.48;1.35;;;5.20;99.90;;;;;;5076941;28;20610;-68
2021/12/02 10:41:29;;;;;;;1.30;1.20;;;5.30;99.90;;;;;;5073229;28;20694;-68
2021/12/02 10:44:10;;;;;;;1.52;1.42;;;5.40;99.90;;;;;;5078845;28;20701;-68
2021/12/02 10:46:38;;;;;;;2.38;2.17;;;5.50;99.90;;;;;;5088039;28;20208;-70
2021/12/02 10:49:13;;;;;;;2.05;1.83;;;5.40;99.90;;;;;;5081173;28;20254;-70
2021/12/02 10:51:45;;;;;;;4.43;1.73;;;5.30;99.90;;;;;;5074546;28;20215;-71
2021/12/02 10:54:14;;;;;;;1.63;1.50;;;5.10;99.90;;;;;;5082366;28;20200;-70
2021/12/02 10:56:46;;;;;;;2.28;1.63;;;5.00;99.90;;;;;;5071071;28;20554;-70
2021/12/02 10:59:29;;;;;;;2.03;1.83;;;5.10;99.90;;;;;;5075985;28;20601;-70
2021/12/02 11:01:59;;;;;;;2.00;1.85;;;5.30;99.90;;;;;;5081009;28;20720;-66
2021/12/02 11:04:26;;;;;;;1.88;1.35;;;5.50;99.90;;;;;;5074169;28;20196;-67
2021/12/02 11:07:00;;;;;;;1.38;1.23;;;6.00;99.90;;;;;;5070871;28;20200;-65
2021/12/02 11:09:28;;;;;;;1.65;1.50;;;6.30;99.90;;;;;;5080904;28;20229;-67
2021/12/02 11:12:24;;;;;;;2.85;1.40;;;6.30;99.90;;;;;;5069399;28;20285;-68
2021/12/02 11:15:02;;;;;;;1.02;1.02;;;6.10;99.90;;;;;;5083680;22;20236;-63
2021/12/02 11:17:31;;;;;;;1.60;1.50;;;6.10;99.90;;;;;;5061202;28;20200;-63
2021/12/02 11:20:00;;;;;;;2.55;1.52;;;6.20;99.90;;;;;;5056166;28;20269;-63
2021/12/02 11:22:29;;;;;;;1.60;1.27;;;6.20;99.90;;;;;;5061923;28;20233;-63
2021/12/02 11:24:56;;;;;;;10.38;1.70;;;6.20;99.90;;;;;;5062751;28;20286;-63
2021/12/02 11:27:25;;;;;;;0.80;0.80;;;6.10;99.90;;;;;;5061066;28;20206;-72
2021/12/02 11:30:16;;;;;;;7.60;1.13;;;6.20;99.90;;;;;;5061136;28;20213;-69
2021/12/02 11:32:52;;;;;;;2.97;1.58;;;6.20;99.90;;;;;;5062944;28;20215;-69
2021/12/02 11:35:23;;;;;;;7.40;1.05;;;6.00;99.90;;;;;;5061764;28;20232;-69
2021/12/02 11:37:53;;;;;;;2.80;1.40;;;5.80;99.90;;;;;;5057098;28;20715;-69
2021/12/02 11:40:23;;;;;;;11.77;1.77;;;5.50;99.90;;;;;;5071166;28;20216;-69
2021/12/02 11:42:50;;;;;;;2.15;0.77;;;5.40;99.90;;;;;;5063568;28;20250;-68
2021/12/02 11:45:21;;;;;;;4.78;0.93;;;5.30;99.90;;;;;;5073737;28;20231;-69
2021/12/02 11:47:49;;;;;;;0.60;0.52;;;5.30;99.90;;;;;;5073451;28;20204;-68
2021/12/02 11:50:18;;;;;;;0.80;0.80;;;5.20;99.90;;;;;;5073059;28;20683;-69
2021/12/02 11:52:44;;;;;;;1.60;1.25;;;5.30;99.90;;;;;;5072404;28;20276;-69
2021/12/02 11:55:14;;;;;;;0.90;0.90;;;5.30;99.90;;;;;;5081591;28;20289;-69
2021/12/02 11:57:41;;;;;;;0.60;0.50;;;5.40;99.90;;;;;;5074650;28;20208;-69
2021/12/02 12:00:11;;;;;;;1.27;1.00;;;5.50;99.90;;;;;;5066219;28;20207;-69
2021/12/02 12:02:46;;;;;;;1.02;0.93;;;5.50;99.90;;;;;;5071274;28;20224;-68
2021/12/02 12:05:14;;;;;;;1.08;0.98;;;5.60;99.90;;;;;;5071907;28;20235;-69
2021/12/02 12:07:46;;;;;;;1.30;1.20;;;5.60;99.90;;;;;;5073837;28;20219;-69
2021/12/02 12:10:18;;;;;;;1.17;1.08;;;5.60;99.90;;;;;;5076754;28;20208;-68
2021/12/02 12:12:45;;;;;;;0.95;0.90;;;5.50;99.90;;;;;;5077726;28;20650;-69
2021/12/02 12:15:32;;;;;;;1.63;1.35;;;5.60;99.90;;;;;;5077122;28;20329;-69
2021/12/02 12:18:01;;;;;;;0.75;0.75;;;5.50;99.90;;;;;;5075384;28;20224;-72
2021/12/02 12:20:56;;;;;;;1.95;1.15;;;5.40;99.90;;;;;;5076024;28;20231;-71
2021/12/02 12:23:35;;;;;;;2.00;1.70;;;5.30;99.90;;;;;;5021905;28;20373;-71
2021/12/02 12:26:29;;;;;;;1.23;1.13;;;5.30;99.90;;;;;;5078688;28;20236;-70
2021/12/02 12:29:30;;;;;;;1.30;1.20;;;5.40;99.90;;;;;;5073169;28;20486;-72
2021/12/02 12:32:37;;;;;;;1.10;0.98;;;5.30;99.90;;;;;;5072708;28;20206;-71
2021/12/02 12:35:11;;;;;;;2.22;1.60;;;5.20;99.90;;;;;;5074911;28;20256;-71
2021/12/02 12:37:57;;;;;;;3.13;1.77;;;5.10;99.90;;;;;;5072362;28;20211;-70
2021/12/02 12:40:28;;;;;;;0.73;0.70;;;5.10;99.90;;;;;;5074771;28;20228;-70
2021/12/02 12:43:26;;;;;;;4.65;1.58;;;5.10;99.90;;;;;;5072589;28;20221;-70
2021/12/02 12:46:06;;;;;;;3.42;1.23;;;5.10;99.90;;;;;;5076113;28;20228;-70
2021/12/02 12:48:33;;;;;;;2.30;1.30;;;5.10;99.90;;;;;;5075658;28;20642;-71
2021/12/02 12:51:18;;;;;;;5.03;1.40;;;5.20;99.90;;;;;;5076444;28;20613;-70
2021/12/02 12:53:48;;;;;;;1.90;1.80;;;5.40;99.90;;;;;;5065055;28;20219;-70
2021/12/02 12:56:16;;;;;;;3.55;1.17;;;5.70;99.90;;;;;;5067275;28;20227;-70
2021/12/02 12:59:08;;;;;;;1.52;1.42;;;5.70;99.90;;;;;;5065781;28;20615;-70
2021/12/02 13:01:36;;;;;;;4.30;1.50;;;5.70;99.90;;;;;;5068720;28;20209;-70
2021/12/02 13:04:07;;;;;;;1.38;1.02;;;5.50;99.90;;;;;;5062834;28;20284;-70
2021/12/02 13:06:49;;;;;;;1.65;1.50;;;5.40;99.90;;;;;;5069844;28;20219;-70
2021/12/02 13:09:45;;;;;;;1.30;1.20;;;5.20;99.90;;;;;;5065522;28;20306;-70
2021/12/02 13:12:17;;;;;;;1.33;1.20;;;5.10;99.90;;;;;;5056387;28;20197;-71
2021/12/02 13:14:44;;;;;;;3.22;1.77;;;5.10;99.90;;;;;;5069679;28;20228;-70
2021/12/02 13:17:40;;;;;;;1.98;1.70;;;5.00;99.90;;;;;;5076607;28;20363;-70
2021/12/02 13:20:34;;;;;;;4.28;3.58;;;5.00;99.90;;;;;;5074688;28;20200;-70
2021/12/02 13:23:37;;;;;;;4.70;1.50;;;5.10;99.90;;;;;;5074697;28;20227;-70